createdAt,value
2023-05-12T00:00:25.644Z,14.5491
2023-05-12T00:01:26.699Z,14.5526
2023-05-12T00:02:28.432Z,14.5926
2023-05-12T00:03:30.589Z,14.5702
2023-05-12T00:04:31.727Z,14.5443
2023-05-12T00:05:33.269Z,14.5041
2023-05-12T00:06:34.935Z,14.4965
2023-05-12T00:07:36.614Z,14.5347
2023-05-12T00:08:38.237Z,14.5404
2023-05-12T00:09:39.888Z,14.5680
2023-05-12T00:10:41.494Z,14.6123
2023-05-12T00:11:43.163Z,14.5789
2023-05-12T00:12:44.790Z,14.5528
2023-05-12T00:13:46.684Z,14.5413
2023-05-12T00:14:48.238Z,14.5448
2023-05-12T00:15:49.873Z,14.5645
2023-05-12T00:16:51.734Z,14.5203
2023-05-12T00:17:53.274Z,14.5612
2023-05-12T00:18:54.855Z,14.5710
2023-05-12T00:19:56.915Z,14.6138
2023-05-12T00:20:58.983Z,14.5618
2023-05-12T00:21:59.748Z,14.5842
2023-05-12T00:23:01.343Z,14.5158
2023-05-12T00:24:03.094Z,14.5312
2023-05-12T00:25:04.702Z,14.5673
2023-05-12T00:26:06.311Z,14.5793
2023-05-12T00:27:07.905Z,14.6095
2023-05-12T00:28:09.698Z,14.6111
2023-05-12T00:29:11.318Z,14.6127
2023-05-12T00:30:12.939Z,14.6345
2023-05-12T00:31:14.551Z,14.6604
2023-05-12T00:32:16.199Z,14.6438
2023-05-12T00:33:17.835Z,14.5901
2023-05-12T00:34:19.593Z,14.5680
2023-05-12T00:35:21.086Z,14.5460
2023-05-12T00:36:22.806Z,14.5489
2023-05-12T00:37:24.406Z,14.5339
2023-05-12T00:38:26.057Z,14.5513
2023-05-12T00:39:27.796Z,14.5731
2023-05-12T00:40:29.398Z,14.5649
2023-05-12T00:41:30.999Z,14.5869
2023-05-12T00:42:32.725Z,14.5830
2023-05-12T00:43:34.329Z,14.6058
2023-05-12T00:44:36.000Z,14.6220
2023-05-12T00:45:37.718Z,14.5813
2023-05-12T00:46:39.240Z,14.6125
2023-05-12T00:47:40.917Z,14.6053
2023-05-12T00:48:42.570Z,14.5713
2023-05-12T00:49:44.284Z,14.4595
2023-05-12T00:50:45.901Z,14.4694
2023-05-12T00:51:47.513Z,14.4455
2023-05-12T00:52:49.189Z,14.4708
2023-05-12T00:53:50.933Z,14.5043
2023-05-12T00:54:52.606Z,14.5178
2023-05-12T00:55:54.161Z,14.5575
2023-05-12T00:56:55.930Z,14.5928
2023-05-12T00:57:57.482Z,14.5869
2023-05-12T00:58:59.133Z,14.5702
2023-05-12T01:00:00.862Z,14.5813
2023-05-12T01:01:02.468Z,14.5300
2023-05-12T01:02:04.061Z,14.5125
2023-05-12T01:03:05.923Z,14.5148
2023-05-12T01:04:07.372Z,14.4920
2023-05-12T01:05:09.088Z,14.5316
2023-05-12T01:06:10.641Z,14.5702
2023-05-12T01:07:12.336Z,14.6064
2023-05-12T01:08:13.925Z,14.6189
2023-05-12T01:09:15.622Z,14.5980
2023-05-12T01:10:17.373Z,14.5614
2023-05-12T01:11:18.897Z,14.5043
2023-05-12T01:12:20.505Z,14.4825
2023-05-12T01:13:22.218Z,14.4946
2023-05-12T01:14:23.938Z,14.5096
2023-05-12T01:15:25.645Z,14.5585
2023-05-12T01:16:27.123Z,14.5480
2023-05-12T01:17:28.897Z,14.5361
2023-05-12T01:18:30.566Z,14.5450
2023-05-12T01:19:32.172Z,14.5600
2023-05-12T01:20:33.730Z,14.5472
2023-05-12T01:21:35.482Z,14.5682
2023-05-12T01:22:37.909Z,14.5926
2023-05-12T01:23:38.712Z,14.6134
2023-05-12T01:24:40.399Z,14.5565
2023-05-12T01:25:42.049Z,14.4946
2023-05-12T01:26:43.675Z,14.4926
2023-05-12T01:27:45.396Z,14.4946
2023-05-12T01:28:46.960Z,14.5100
2023-05-12T01:29:48.665Z,14.5417
2023-05-12T01:30:50.366Z,14.5901
2023-05-12T01:31:51.902Z,14.5540
2023-05-12T01:32:53.571Z,14.5174
2023-05-12T01:33:55.189Z,14.4963
2023-05-12T01:34:56.854Z,14.4801
2023-05-12T01:35:58.562Z,14.5166
2023-05-12T01:37:00.164Z,14.5369
2023-05-12T01:38:02.138Z,14.5201
2023-05-12T01:39:03.455Z,14.5655
2023-05-12T01:40:05.071Z,14.5772
2023-05-12T01:41:06.788Z,14.5760
2023-05-12T01:42:08.444Z,14.5776
2023-05-12T01:43:10.070Z,14.5158
2023-05-12T01:44:11.699Z,14.5107
2023-05-12T01:45:13.358Z,14.5105
2023-05-12T01:46:15.503Z,14.5382
2023-05-12T01:47:16.713Z,14.5558
2023-05-12T01:48:18.272Z,14.5801
2023-05-12T01:49:19.950Z,14.6123
2023-05-12T01:50:21.800Z,14.5606
2023-05-12T01:51:23.346Z,14.5663
2023-05-12T01:52:24.907Z,14.5363
2023-05-12T01:53:26.615Z,14.5462
2023-05-12T01:54:28.184Z,14.5267
2023-05-12T01:55:29.846Z,14.5425
2023-05-12T01:56:32.480Z,14.5910
2023-05-12T01:57:33.130Z,14.6039
2023-05-12T01:58:34.804Z,14.5402
2023-05-12T01:59:36.398Z,14.4920
2023-05-12T02:00:38.172Z,14.4946
2023-05-12T02:01:39.750Z,14.5135
2023-05-12T02:02:43.071Z,14.5259
2023-05-12T02:03:43.166Z,14.5298
2023-05-12T02:04:44.750Z,14.5304
2023-05-12T02:05:46.275Z,14.4846
2023-05-12T02:06:47.996Z,14.5024
2023-05-12T02:07:49.627Z,14.5271
2023-05-12T02:08:51.967Z,14.5267
2023-05-12T02:09:52.859Z,14.5556
2023-05-12T02:10:54.553Z,14.5544
2023-05-12T02:11:56.282Z,14.5429
2023-05-12T02:12:57.912Z,14.5593
2023-05-12T02:13:59.462Z,14.5569
2023-05-12T02:15:01.231Z,14.5575
2023-05-12T02:16:02.898Z,14.5885
2023-05-12T02:17:04.548Z,14.5733
2023-05-12T02:18:06.175Z,14.5780
2023-05-12T02:19:07.805Z,14.5739
2023-05-12T02:20:09.397Z,14.5618
2023-05-12T02:21:11.037Z,14.5752
2023-05-12T02:22:12.689Z,14.6064
2023-05-12T02:23:14.347Z,14.6076
2023-05-12T02:24:15.918Z,14.6526
2023-05-12T02:25:17.606Z,14.6331
2023-05-12T02:26:19.194Z,14.6008
2023-05-12T02:27:20.938Z,14.5287
2023-05-12T02:28:22.567Z,14.4782
2023-05-12T02:29:24.239Z,14.4388
2023-05-12T02:30:25.823Z,14.5018
2023-05-12T02:31:27.605Z,14.5544
2023-05-12T02:32:29.505Z,14.5984
2023-05-12T02:33:30.819Z,14.6386
2023-05-12T02:34:32.475Z,14.6477
2023-05-12T02:35:34.096Z,14.5982
2023-05-12T02:36:35.727Z,14.5351
2023-05-12T02:37:37.505Z,14.5515
2023-05-12T02:38:39.001Z,14.5710
2023-05-12T02:39:40.680Z,14.5690
2023-05-12T02:40:42.324Z,14.5248
2023-05-12T02:41:44.955Z,14.5098
2023-05-12T02:42:45.588Z,14.4979
2023-05-12T02:43:47.206Z,14.4725
2023-05-12T02:44:48.855Z,14.4402
2023-05-12T02:45:50.642Z,14.4560
2023-05-12T02:46:52.120Z,14.4616
2023-05-12T02:47:53.926Z,14.5061
2023-05-12T02:48:55.479Z,14.5246
2023-05-12T02:49:57.104Z,14.5226
2023-05-12T02:50:58.720Z,14.5532
2023-05-12T02:52:00.418Z,14.5421
2023-05-12T02:53:02.085Z,14.6600
2023-05-12T02:54:03.674Z,14.8592
2023-05-12T02:55:05.359Z,15.2244
2023-05-12T02:56:06.992Z,15.6942
2023-05-12T02:57:08.639Z,16.2753
2023-05-12T02:58:10.307Z,16.6795
2023-05-12T02:59:11.945Z,16.7073
2023-05-12T03:00:13.580Z,16.5097
2023-05-12T03:01:15.212Z,16.3213
2023-05-12T03:02:16.892Z,16.3318
2023-05-12T03:03:18.553Z,16.4037
2023-05-12T03:04:20.142Z,16.5027
2023-05-12T03:05:21.803Z,16.5510
2023-05-12T03:06:23.460Z,16.4904
2023-05-12T03:07:25.146Z,16.2613
2023-05-12T03:08:26.818Z,16.1613
2023-05-12T03:09:28.370Z,16.2718
2023-05-12T03:10:30.051Z,16.3897
2023-05-12T03:11:31.652Z,16.4384
2023-05-12T03:12:33.288Z,16.4630
2023-05-12T03:13:35.440Z,16.4778
2023-05-12T03:14:36.657Z,16.3944
2023-05-12T03:15:38.237Z,16.3069
2023-05-12T03:16:40.553Z,16.2558
2023-05-12T03:17:41.581Z,16.2971
2023-05-12T03:18:43.229Z,16.3250
2023-05-12T03:19:44.802Z,16.3897
2023-05-12T03:20:46.518Z,16.4509
2023-05-12T03:21:48.084Z,16.4881
2023-05-12T03:22:49.770Z,16.3955
2023-05-12T03:23:51.452Z,16.3688
2023-05-12T03:24:53.072Z,16.3573
2023-05-12T03:25:54.668Z,16.3870
2023-05-12T03:26:56.320Z,16.4402
2023-05-12T03:27:57.972Z,16.4910
2023-05-12T03:28:59.674Z,16.5199
2023-05-12T03:30:01.252Z,16.5623
2023-05-12T03:31:03.117Z,16.5175
2023-05-12T03:32:04.585Z,16.5008
2023-05-12T03:33:06.253Z,16.4943
2023-05-12T03:34:07.915Z,16.4536
2023-05-12T03:35:09.633Z,16.4257
2023-05-12T03:36:11.139Z,16.4622
2023-05-12T03:37:12.859Z,16.4850
2023-05-12T03:38:14.440Z,16.5111
2023-05-12T03:39:16.191Z,16.4487
2023-05-12T03:40:18.975Z,16.4419
2023-05-12T03:41:19.407Z,16.4049
2023-05-12T03:42:21.048Z,16.4211
2023-05-12T03:43:22.761Z,16.4423
2023-05-12T03:44:24.363Z,16.4809
2023-05-12T03:45:26.062Z,16.5113
2023-05-12T03:46:27.661Z,16.6270
2023-05-12T03:47:29.463Z,16.7245
2023-05-12T03:48:30.971Z,16.7120
2023-05-12T03:49:32.567Z,16.7463
2023-05-12T03:50:34.258Z,16.8482
2023-05-12T03:51:35.978Z,16.8350
2023-05-12T03:52:37.513Z,16.6656
2023-05-12T03:53:39.188Z,16.5846
2023-05-12T03:54:40.809Z,16.5054
2023-05-12T03:55:42.965Z,16.4557
2023-05-12T03:56:44.133Z,16.4774
2023-05-12T03:57:45.744Z,16.6272
2023-05-12T03:58:47.436Z,16.7231
2023-05-12T03:59:49.102Z,16.5280
2023-05-12T04:00:50.732Z,16.4604
2023-05-12T04:01:52.392Z,16.5257
2023-05-12T04:02:54.038Z,16.6738
2023-05-12T04:03:55.729Z,16.7340
2023-05-12T04:04:57.281Z,16.5282
2023-05-12T04:05:58.967Z,16.4012
2023-05-12T04:07:00.650Z,16.4183
2023-05-12T04:08:02.228Z,16.5549
2023-05-12T04:09:03.896Z,16.5078
2023-05-12T04:10:05.540Z,16.4066
2023-05-12T04:11:07.481Z,16.3905
2023-05-12T04:12:08.793Z,16.3757
2023-05-12T04:13:10.460Z,16.3714
2023-05-12T04:14:12.083Z,16.3838
2023-05-12T04:15:13.799Z,16.4055
2023-05-12T04:16:15.524Z,16.3612
2023-05-12T04:17:17.041Z,16.3571
2023-05-12T04:18:18.697Z,16.4579
2023-05-12T04:19:20.329Z,16.5427
2023-05-12T04:20:22.121Z,16.7005
2023-05-12T04:21:24.494Z,16.7553
2023-05-12T04:22:25.817Z,16.7052
2023-05-12T04:23:26.945Z,16.5518
2023-05-12T04:24:28.648Z,16.4908
2023-05-12T04:25:30.234Z,16.4620
2023-05-12T04:26:31.872Z,16.5162
2023-05-12T04:27:33.526Z,16.6491
2023-05-12T04:28:35.176Z,16.6198
2023-05-12T04:29:36.825Z,16.5345
2023-05-12T04:30:38.470Z,16.4694
2023-05-12T04:31:40.177Z,16.4226
2023-05-12T04:32:41.789Z,16.4250
2023-05-12T04:33:43.464Z,16.4269
2023-05-12T04:34:45.951Z,16.4166
2023-05-12T04:35:47.453Z,16.4828
2023-05-12T04:36:48.389Z,16.4988
2023-05-12T04:37:50.973Z,16.4688
2023-05-12T04:38:51.699Z,16.6917
2023-05-12T04:39:53.280Z,16.8147
2023-05-12T04:40:54.914Z,16.6701
2023-05-12T04:41:56.666Z,16.5976
2023-05-12T04:42:58.232Z,16.7566
2023-05-12T04:44:00.380Z,16.8759
2023-05-12T04:45:01.505Z,16.9665
2023-05-12T04:46:03.222Z,16.8864
2023-05-12T04:47:04.875Z,16.7783
2023-05-12T04:48:07.501Z,16.6993
2023-05-12T04:49:09.095Z,16.7266
2023-05-12T04:50:09.950Z,17.0353
2023-05-12T04:51:11.604Z,17.1037
2023-05-12T04:52:13.228Z,16.9858
2023-05-12T04:53:14.828Z,16.9932
2023-05-12T04:54:16.495Z,17.2559
2023-05-12T04:55:18.429Z,17.6121
2023-05-12T04:56:19.883Z,18.1441
2023-05-12T04:57:21.653Z,18.6436
2023-05-12T04:58:23.141Z,18.8786
2023-05-12T04:59:24.731Z,18.8977
2023-05-12T05:00:26.516Z,19.0475
2023-05-12T05:01:28.106Z,19.4242
2023-05-12T05:02:30.270Z,19.6068
2023-05-12T05:03:31.492Z,19.5941
2023-05-12T05:04:33.047Z,19.6013
2023-05-12T05:05:34.658Z,19.7288
2023-05-12T05:06:36.306Z,19.8919
2023-05-12T05:07:38.947Z,19.8093
2023-05-12T05:08:40.443Z,19.8490
2023-05-12T05:09:41.291Z,19.9704
2023-05-12T05:10:42.868Z,20.1661
2023-05-12T05:11:44.586Z,20.3352
2023-05-12T05:12:46.171Z,20.2493
2023-05-12T05:13:47.841Z,20.2070
2023-05-12T05:14:50.425Z,20.2803
2023-05-12T05:15:51.295Z,20.4344
2023-05-12T05:16:52.750Z,20.5827
2023-05-12T05:17:54.647Z,20.6131
2023-05-12T05:18:57.614Z,20.4373
2023-05-12T05:19:59.226Z,20.4075
2023-05-12T05:20:59.522Z,20.3876
2023-05-12T05:22:01.021Z,20.3818
2023-05-12T05:23:02.724Z,20.6692
2023-05-12T05:24:04.346Z,20.6244
2023-05-12T05:25:05.930Z,20.5297
2023-05-12T05:26:07.667Z,20.5570
2023-05-12T05:27:09.230Z,20.6112
2023-05-12T05:28:10.966Z,20.7308
2023-05-12T05:29:12.548Z,21.0214
2023-05-12T05:30:14.256Z,20.9046
2023-05-12T05:31:15.866Z,20.8440
2023-05-12T05:32:17.499Z,20.6807
2023-05-12T05:33:19.250Z,20.6786
2023-05-12T05:34:20.812Z,21.0257
2023-05-12T05:35:22.635Z,20.9873
2023-05-12T05:36:24.046Z,20.9401
2023-05-12T05:37:25.717Z,21.0720
2023-05-12T05:38:28.225Z,21.0354
2023-05-12T05:39:28.958Z,21.0025
2023-05-12T05:40:38.536Z,21.1794
2023-05-12T05:41:32.471Z,21.0568
2023-05-12T05:42:34.058Z,21.1636
2023-05-12T05:43:35.623Z,21.1893
2023-05-12T05:44:37.182Z,21.0085
2023-05-12T05:45:38.888Z,21.1459
2023-05-12T05:46:40.547Z,21.3256
2023-05-12T05:47:42.220Z,21.1773
2023-05-12T05:48:43.859Z,21.1116
2023-05-12T05:49:45.468Z,21.0009
2023-05-12T05:50:47.089Z,20.9666
2023-05-12T05:51:48.751Z,21.2186
2023-05-12T05:52:50.404Z,21.3322
2023-05-12T05:53:52.107Z,21.4193
2023-05-12T05:54:53.714Z,21.4288
2023-05-12T05:55:55.694Z,21.3028
2023-05-12T05:56:57.264Z,21.4220
2023-05-12T05:57:58.710Z,21.6348
2023-05-12T05:59:00.272Z,21.6147
2023-05-12T06:00:01.999Z,21.6245
2023-05-12T06:01:04.091Z,21.4748
2023-05-12T06:02:05.294Z,21.4869
2023-05-12T06:03:06.991Z,21.6381
2023-05-12T06:04:09.544Z,21.3717
2023-05-12T06:05:10.146Z,21.4255
2023-05-12T06:06:12.957Z,21.4335
2023-05-12T06:07:13.452Z,21.4435
2023-05-12T06:08:15.035Z,21.4571
2023-05-12T06:09:16.734Z,21.7171
2023-05-12T06:10:18.622Z,21.7835
2023-05-12T06:11:19.983Z,21.7623
2023-05-12T06:12:21.570Z,21.3526
2023-05-12T06:13:23.245Z,21.5426
2023-05-12T06:14:25.100Z,21.6633
2023-05-12T06:15:26.584Z,21.7496
2023-05-12T06:16:28.240Z,21.6257
2023-05-12T06:17:32.066Z,21.6442
2023-05-12T06:18:31.490Z,21.4988
2023-05-12T06:19:33.722Z,21.6257
2023-05-12T06:20:34.769Z,21.7975
2023-05-12T06:21:36.428Z,21.9813
2023-05-12T06:22:38.056Z,21.8225
2023-05-12T06:23:39.774Z,21.7432
2023-05-12T06:24:41.401Z,21.8897
2023-05-12T06:25:43.029Z,21.9546
2023-05-12T06:26:44.675Z,21.9712
2023-05-12T06:27:46.316Z,22.0203
2023-05-12T06:28:47.984Z,21.7586
2023-05-12T06:29:49.604Z,21.5261
2023-05-12T06:30:51.220Z,21.2934
2023-05-12T06:31:52.902Z,21.1280
2023-05-12T06:32:54.519Z,21.0814
2023-05-12T06:33:56.159Z,20.8470
2023-05-12T06:34:57.846Z,20.5858
2023-05-12T06:35:59.543Z,20.4210
2023-05-12T06:37:01.074Z,20.2643
2023-05-12T06:38:02.805Z,20.3469
2023-05-12T06:39:04.418Z,20.5149
2023-05-12T06:40:06.072Z,20.4792
2023-05-12T06:41:08.669Z,20.2368
2023-05-12T06:42:09.385Z,19.9145
2023-05-12T06:43:10.978Z,19.9077
2023-05-12T06:44:12.643Z,20.1156
2023-05-12T06:45:14.287Z,20.2768
2023-05-12T06:46:16.030Z,20.1010
2023-05-12T06:47:17.544Z,19.7841
2023-05-12T06:48:19.172Z,19.5554
2023-05-12T06:49:20.796Z,19.6282
2023-05-12T06:50:22.572Z,19.9687
2023-05-12T06:51:24.135Z,20.3132
2023-05-12T06:52:26.490Z,20.2715
2023-05-12T06:53:27.371Z,19.9357
2023-05-12T06:54:29.144Z,19.5978
2023-05-12T06:55:30.717Z,19.6918
2023-05-12T06:56:32.453Z,19.9778
2023-05-12T06:57:34.047Z,20.2360
2023-05-12T06:58:35.619Z,20.1542
2023-05-12T06:59:37.304Z,19.8132
2023-05-12T07:00:39.669Z,19.4431
2023-05-12T07:01:40.691Z,19.6041
2023-05-12T07:02:42.280Z,19.8849
2023-05-12T07:03:43.855Z,20.1513
2023-05-12T07:04:45.625Z,19.9796
2023-05-12T07:05:47.189Z,19.6154
2023-05-12T07:06:48.912Z,19.2465
2023-05-12T07:07:50.576Z,19.4242
2023-05-12T07:08:52.157Z,19.7592
2023-05-12T07:09:53.738Z,19.9769
2023-05-12T07:10:55.467Z,19.7859
2023-05-12T07:11:57.126Z,19.4961
2023-05-12T07:12:58.722Z,19.1475
2023-05-12T07:14:00.377Z,19.2677
2023-05-12T07:15:02.017Z,19.5386
2023-05-12T07:16:03.626Z,19.8393
2023-05-12T07:17:05.242Z,19.6992
2023-05-12T07:18:06.991Z,19.4525
2023-05-12T07:19:08.672Z,19.3708
2023-05-12T07:20:10.172Z,19.5347
2023-05-12T07:21:11.867Z,19.7668
2023-05-12T07:22:16.179Z,19.9504
2023-05-12T07:23:15.049Z,19.7485
2023-05-12T07:24:16.708Z,19.3650
2023-05-12T07:25:19.150Z,19.1510
2023-05-12T07:26:21.648Z,19.3147
2023-05-12T07:27:21.624Z,19.6142
2023-05-12T07:28:23.276Z,19.8436
2023-05-12T07:29:24.914Z,19.6729
2023-05-12T07:30:26.660Z,19.4273
2023-05-12T07:31:29.197Z,19.3110
2023-05-12T07:32:29.920Z,19.7438
2023-05-12T07:33:32.683Z,20.1478
2023-05-12T07:34:33.208Z,20.3062
2023-05-12T07:35:34.949Z,20.0451
2023-05-12T07:36:36.574Z,19.7387
2023-05-12T07:37:38.356Z,19.4757
2023-05-12T07:38:39.905Z,19.6896
2023-05-12T07:39:41.554Z,20.0827
2023-05-12T07:40:43.140Z,20.3921
2023-05-12T07:41:44.876Z,20.2454
2023-05-12T07:42:46.429Z,19.7109
2023-05-12T07:43:48.276Z,19.3418
2023-05-12T07:44:49.706Z,19.6119
2023-05-12T07:45:51.441Z,19.8974
2023-05-12T07:46:54.100Z,20.0653
2023-05-12T07:47:55.557Z,19.7543
2023-05-12T07:48:56.266Z,19.2890
2023-05-12T07:49:58.693Z,19.0329
2023-05-12T07:50:59.543Z,19.2206
2023-05-12T07:52:01.270Z,19.5715
2023-05-12T07:53:02.856Z,19.8321
2023-05-12T07:54:04.540Z,19.6918
2023-05-12T07:55:06.158Z,19.4012
2023-05-12T07:56:07.861Z,19.2001
2023-05-12T07:57:09.478Z,19.3365
2023-05-12T07:58:11.059Z,19.6590
2023-05-12T07:59:12.754Z,19.9669
2023-05-12T08:00:14.413Z,19.8494
2023-05-12T08:01:16.109Z,19.5039
2023-05-12T08:02:18.202Z,19.2899
2023-05-12T08:03:19.403Z,19.4838
2023-05-12T08:04:21.027Z,19.8106
2023-05-12T08:05:22.701Z,20.1226
2023-05-12T08:06:25.026Z,19.9151
2023-05-12T08:07:26.195Z,19.5702
2023-05-12T08:08:27.516Z,19.4310
2023-05-12T08:09:29.221Z,19.6575
2023-05-12T08:10:30.843Z,19.8862
2023-05-12T08:11:32.475Z,20.1359
2023-05-12T08:12:34.131Z,19.8631
2023-05-12T08:13:35.733Z,19.3675
2023-05-12T08:14:37.335Z,19.1615
2023-05-12T08:15:39.045Z,19.3523
2023-05-12T08:16:40.739Z,19.6121
2023-05-12T08:17:42.359Z,19.8890
2023-05-12T08:18:43.986Z,19.7485
2023-05-12T08:19:45.571Z,19.3564
2023-05-12T08:20:47.249Z,19.1424
2023-05-12T08:21:48.878Z,19.2759
2023-05-12T08:22:52.173Z,19.5014
2023-05-12T08:23:53.209Z,19.8013
2023-05-12T08:24:54.044Z,19.7506
2023-05-12T08:25:55.600Z,19.3954
2023-05-12T08:26:57.359Z,19.1457
2023-05-12T08:27:58.976Z,19.2638
2023-05-12T08:29:00.599Z,19.5550
2023-05-12T08:30:02.223Z,19.9385
2023-05-12T08:31:05.127Z,20.0225
2023-05-12T08:32:05.421Z,19.6577
2023-05-12T08:33:07.213Z,19.3944
2023-05-12T08:34:10.906Z,19.4550
2023-05-12T08:35:10.391Z,19.7374
2023-05-12T08:36:11.987Z,20.0223
2023-05-12T08:37:13.783Z,20.1992
2023-05-12T08:38:15.662Z,19.9055
2023-05-12T08:39:16.957Z,19.6241
2023-05-12T08:40:18.571Z,19.5142
2023-05-12T08:41:20.257Z,19.7031
2023-05-12T08:42:21.960Z,19.9320
2023-05-12T08:43:23.624Z,20.1546
2023-05-12T08:44:25.172Z,20.0437
2023-05-12T08:45:26.913Z,19.6660
2023-05-12T08:46:28.509Z,19.3704
2023-05-12T08:47:30.145Z,19.4423
2023-05-12T08:48:31.788Z,19.7177
2023-05-12T08:49:33.495Z,20.0879
2023-05-12T08:50:35.128Z,20.1435
2023-05-12T08:51:36.721Z,19.7678
2023-05-12T08:52:38.363Z,19.4039
2023-05-12T08:53:40.057Z,19.4359
2023-05-12T08:54:52.414Z,19.7397
2023-05-12T08:55:48.224Z,20.1585
2023-05-12T08:57:46.627Z,19.9075
2023-05-12T08:58:48.222Z,19.5669
2023-05-12T08:59:49.969Z,19.5045
2023-05-12T09:00:51.604Z,19.7155
2023-05-12T09:01:53.363Z,20.0256
2023-05-12T09:02:55.118Z,20.2232
2023-05-12T09:03:56.598Z,19.8999
2023-05-12T09:04:58.192Z,19.5400
2023-05-12T09:05:59.836Z,19.4088
2023-05-12T09:07:01.459Z,19.6017
2023-05-12T09:08:03.112Z,19.9131
2023-05-12T09:09:04.763Z,20.1750
2023-05-12T09:10:06.419Z,19.9301
2023-05-12T09:11:08.086Z,19.4599
2023-05-12T09:12:10.556Z,19.1779
2023-05-12T09:13:11.343Z,19.3985
2023-05-12T09:14:13.049Z,19.7362
2023-05-12T09:15:14.729Z,20.0568
2023-05-12T09:16:16.334Z,20.0402
2023-05-12T09:17:17.992Z,19.7348
2023-05-12T09:18:19.623Z,19.3246
2023-05-12T09:19:21.186Z,19.4281
2023-05-12T09:20:30.818Z,19.8923
2023-05-12T09:21:24.438Z,20.3092
2023-05-12T09:22:26.084Z,20.3157
2023-05-12T09:23:27.742Z,20.0014
2023-05-12T09:24:29.387Z,19.6740
2023-05-12T09:25:31.078Z,19.9024
2023-05-12T09:26:32.704Z,20.2715
2023-05-12T09:27:34.389Z,20.6529
2023-05-12T09:28:36.020Z,20.5605
2023-05-12T09:29:45.310Z,20.1819
2023-05-12T09:30:39.317Z,19.9149
2023-05-12T09:31:40.959Z,20.0527
2023-05-12T09:32:42.548Z,20.4334
2023-05-12T09:33:44.217Z,20.8228
2023-05-12T09:34:46.595Z,20.6741
2023-05-12T09:35:47.543Z,20.4048
2023-05-12T09:36:49.156Z,20.0546
2023-05-12T09:37:51.846Z,20.1961
2023-05-12T09:38:52.595Z,20.5891
2023-05-12T09:39:54.192Z,20.8117
2023-05-12T09:40:55.873Z,20.5689
2023-05-12T09:41:57.552Z,20.2113
2023-05-12T09:42:59.144Z,20.0659
2023-05-12T09:44:00.894Z,20.2955
2023-05-12T09:45:02.478Z,20.5950
2023-05-12T09:46:04.139Z,20.7487
2023-05-12T09:47:05.800Z,20.4461
2023-05-12T09:48:07.442Z,20.0622
2023-05-12T09:49:09.111Z,19.8280
2023-05-12T09:50:10.741Z,20.0718
2023-05-12T09:51:12.376Z,20.5340
2023-05-12T09:52:14.036Z,20.5704
2023-05-12T09:53:15.709Z,20.2099
2023-05-12T09:54:18.281Z,20.0262
2023-05-12T09:55:19.068Z,20.1552
2023-05-12T09:56:20.645Z,20.4327
2023-05-12T09:57:22.248Z,20.8088
2023-05-12T09:58:23.891Z,20.6607
2023-05-12T09:59:25.576Z,20.4210
2023-05-12T10:00:41.293Z,20.1544
2023-05-12T10:01:28.873Z,20.2497
2023-05-12T10:02:30.725Z,20.5671
2023-05-12T10:03:32.099Z,20.8579
2023-05-12T10:04:33.802Z,20.6542
2023-05-12T10:05:35.400Z,20.3670
2023-05-12T10:06:37.748Z,20.0100
2023-05-12T10:07:38.802Z,20.1417
2023-05-12T10:08:40.509Z,20.5962
2023-05-12T10:09:41.999Z,20.8316
2023-05-12T10:10:43.612Z,20.6170
2023-05-12T10:11:45.348Z,20.1893
2023-05-12T10:12:46.957Z,19.9402
2023-05-12T10:13:48.597Z,20.1466
2023-05-12T10:14:50.207Z,20.5192
2023-05-12T10:15:51.954Z,20.5882
2023-05-12T10:16:54.268Z,20.3551
2023-05-12T10:17:55.264Z,19.9806
2023-05-12T10:18:56.898Z,19.9102
2023-05-12T10:19:58.449Z,20.2201
2023-05-12T10:21:00.240Z,20.6556
2023-05-12T10:22:02.346Z,20.7661
2023-05-12T10:23:03.419Z,20.4709
2023-05-12T10:24:05.053Z,20.0815
2023-05-12T10:25:06.673Z,19.9373
2023-05-12T10:26:08.337Z,20.1727
2023-05-12T10:27:10.752Z,20.5420
2023-05-12T10:28:11.784Z,20.6384
2023-05-12T10:29:13.296Z,20.4709
2023-05-12T10:30:14.944Z,20.2618
2023-05-12T10:31:16.712Z,20.2592
2023-05-12T10:32:19.292Z,20.6375
2023-05-12T10:33:20.358Z,20.9738
2023-05-12T10:34:21.662Z,20.8475
2023-05-12T10:35:23.171Z,20.6416
2023-05-12T10:36:24.844Z,20.3771
2023-05-12T10:37:27.216Z,20.5667
2023-05-12T10:38:28.158Z,20.8602
2023-05-12T10:39:29.718Z,21.0691
2023-05-12T10:40:32.381Z,20.7780
2023-05-12T10:41:33.049Z,20.3175
2023-05-12T10:42:35.275Z,20.1409
2023-05-12T10:43:36.372Z,20.3157
2023-05-12T10:44:38.022Z,20.6735
2023-05-12T10:45:39.663Z,20.6940
2023-05-12T10:46:41.317Z,20.3539
2023-05-12T10:47:43.059Z,20.2536
2023-05-12T10:48:44.597Z,20.2156
2023-05-12T10:49:46.264Z,20.4151
2023-05-12T10:50:47.858Z,20.7146
2023-05-12T10:51:49.524Z,20.5204
2023-05-12T10:52:51.172Z,20.1680
2023-05-12T10:53:54.860Z,19.8510
2023-05-12T10:54:54.509Z,19.8644
2023-05-12T10:55:56.288Z,20.2017
2023-05-12T10:56:57.964Z,20.5718
2023-05-12T10:58:00.154Z,20.4405
2023-05-12T10:59:01.468Z,20.1121
2023-05-12T11:00:03.835Z,19.8584
2023-05-12T11:01:05.055Z,19.9465
2023-05-12T11:02:06.975Z,20.2957
2023-05-12T11:03:10.441Z,20.6457
2023-05-12T11:04:09.410Z,20.5572
2023-05-12T11:05:11.223Z,20.3037
2023-05-12T11:06:12.806Z,19.9714
2023-05-12T11:07:14.707Z,20.0162
2023-05-12T11:08:16.061Z,20.3978
2023-05-12T11:09:18.002Z,20.7542
2023-05-12T11:10:19.706Z,20.7080
2023-05-12T11:11:20.870Z,20.4007
2023-05-12T11:12:22.583Z,20.1039
2023-05-12T11:13:24.192Z,20.2062
2023-05-12T11:14:25.819Z,20.8592
2023-05-12T11:15:27.491Z,21.1174
2023-05-12T11:16:29.155Z,20.9173
2023-05-12T11:17:30.784Z,20.5899
2023-05-12T11:18:32.442Z,20.3226
2023-05-12T11:19:34.074Z,20.4872
2023-05-12T11:20:35.628Z,20.9409
2023-05-12T11:21:37.371Z,21.0496
2023-05-12T11:22:38.979Z,20.9046
2023-05-12T11:23:40.704Z,20.6996
2023-05-12T11:24:42.298Z,20.6242
2023-05-12T11:25:44.451Z,20.8230
2023-05-12T11:26:45.620Z,21.0687
2023-05-12T11:27:47.598Z,20.9639
2023-05-12T11:28:48.913Z,20.6509
2023-05-12T11:29:52.368Z,20.2990
2023-05-12T11:30:54.699Z,20.3284
2023-05-12T11:31:53.876Z,20.7281
2023-05-12T11:32:55.429Z,21.0373
2023-05-12T11:34:10.846Z,20.9313
2023-05-12T11:34:58.801Z,20.7823
2023-05-12T11:36:00.464Z,20.6926
2023-05-12T11:37:02.067Z,20.8766
2023-05-12T11:38:03.742Z,21.1905
2023-05-12T11:39:05.387Z,21.3037
2023-05-12T11:40:07.090Z,20.9970
2023-05-12T11:41:08.620Z,20.6854
2023-05-12T11:42:13.433Z,20.6971
2023-05-12T11:43:12.047Z,20.8507
2023-05-12T11:44:13.663Z,21.1724
2023-05-12T11:45:15.254Z,21.1919
2023-05-12T11:46:17.011Z,20.6874
2023-05-12T11:47:18.588Z,20.2010
2023-05-12T11:48:20.339Z,20.1250
2023-05-12T11:49:22.293Z,20.4253
2023-05-12T11:50:23.568Z,20.9506
2023-05-12T11:51:25.120Z,21.0346
2023-05-12T11:52:26.806Z,20.6665
2023-05-12T11:53:28.499Z,20.4358
2023-05-12T11:54:30.148Z,20.3828
2023-05-12T11:55:31.720Z,20.6501
2023-05-12T11:56:33.429Z,20.9760
2023-05-12T11:57:35.756Z,20.8396
2023-05-12T11:58:36.683Z,20.5274
2023-05-12T11:59:38.797Z,20.3477
2023-05-12T12:00:40.052Z,20.4798
2023-05-12T12:01:41.609Z,20.8859
2023-05-12T12:02:43.471Z,21.0730
2023-05-12T12:03:45.037Z,20.7772
2023-05-12T12:04:46.641Z,20.5504
2023-05-12T12:05:48.194Z,20.4216
2023-05-12T12:06:49.893Z,20.6147
2023-05-12T12:07:51.491Z,21.0145
2023-05-12T12:08:53.130Z,21.2055
2023-05-12T12:09:54.821Z,20.7441
2023-05-12T12:10:57.273Z,20.4621
2023-05-12T12:11:58.104Z,20.3682
2023-05-12T12:13:00.289Z,20.6451
2023-05-12T12:14:01.416Z,21.0208
2023-05-12T12:15:04.018Z,21.0668
2023-05-12T12:16:05.635Z,20.6266
2023-05-12T12:17:06.338Z,20.5102
2023-05-12T12:18:08.099Z,20.5525
2023-05-12T12:19:09.813Z,20.8959
2023-05-12T12:20:11.384Z,21.2527
2023-05-12T12:21:12.953Z,21.0553
2023-05-12T12:22:14.581Z,20.6102
2023-05-12T12:23:16.169Z,20.4864
2023-05-12T12:24:18.772Z,20.5989
2023-05-12T12:25:19.822Z,21.0541
2023-05-12T12:26:21.176Z,21.4142